createdAt,value
2022-08-03T00:01:31.103Z,19.36
2022-08-03T00:04:34.201Z,19.31
2022-08-03T00:07:36.234Z,19.29
2022-08-03T00:10:38.435Z,19.26
2022-08-03T00:13:40.397Z,19.22
2022-08-03T00:16:41.995Z,19.19
2022-08-03T00:19:43.840Z,19.17
2022-08-03T00:22:45.904Z,19.13
2022-08-03T00:25:47.868Z,19.10
2022-08-03T00:28:50.555Z,19.07
2022-08-03T00:31:59.462Z,19.06
2022-08-03T00:35:07.956Z,19.05
2022-08-03T00:38:11.050Z,19.03
2022-08-03T00:41:12.641Z,19.00
2022-08-03T00:44:17.576Z,19.01
2022-08-03T00:47:19.225Z,19.01
2022-08-03T00:50:23.534Z,18.99
2022-08-03T00:53:26.011Z,18.97
2022-08-03T00:56:27.841Z,18.93
2022-08-03T00:59:30.705Z,18.88
2022-08-03T01:02:33.213Z,18.84
2022-08-03T01:06:05.075Z,18.83
2022-08-03T01:09:27.034Z,18.84
2022-08-03T01:12:47.607Z,18.82
2022-08-03T01:16:36.836Z,18.80
2022-08-03T01:19:45.265Z,18.76
2022-08-03T01:22:53.254Z,18.74
2022-08-03T01:26:36.736Z,18.70
2022-08-03T01:29:47.480Z,18.68
2022-08-03T01:33:15.996Z,18.65
2022-08-03T01:36:24.804Z,18.63
2022-08-03T01:39:29.626Z,18.61
2022-08-03T01:42:33.595Z,18.59
2022-08-03T01:45:36.934Z,18.55
2022-08-03T01:48:42.176Z,18.50
2022-08-03T01:52:02.680Z,18.46
2022-08-03T01:55:08.362Z,18.43
2022-08-03T01:58:12.501Z,18.42
2022-08-03T02:01:19.009Z,18.41
2022-08-03T02:04:22.722Z,18.36
2022-08-03T02:07:27.014Z,18.34
2022-08-03T02:10:35.556Z,18.29
2022-08-03T02:13:39.484Z,18.25
2022-08-03T02:16:43.393Z,18.21
2022-08-03T02:19:46.271Z,18.21
2022-08-03T02:22:48.389Z,18.17
2022-08-03T02:26:01.860Z,18.16
2022-08-03T02:29:09.355Z,18.17
2022-08-03T02:32:20.302Z,18.17
2022-08-03T02:35:25.661Z,18.19
2022-08-03T02:38:33.174Z,18.19
2022-08-03T02:41:43.689Z,18.15
2022-08-03T02:44:50.073Z,18.13
2022-08-03T02:47:55.502Z,18.10
2022-08-03T02:50:58.596Z,18.05
2022-08-03T02:54:04.404Z,18.01
2022-08-03T02:57:09.662Z,17.98
2022-08-03T03:00:12.786Z,17.97
2022-08-03T03:03:22.633Z,17.95
2022-08-03T03:06:29.309Z,17.93
2022-08-03T03:09:41.856Z,17.91
2022-08-03T03:12:46.724Z,17.92
2022-08-03T03:15:49.772Z,17.91
2022-08-03T03:18:52.141Z,17.89
2022-08-03T03:21:55.535Z,17.90
2022-08-03T03:24:57.644Z,17.86
2022-08-03T03:28:01.272Z,17.85
2022-08-03T03:31:05.872Z,17.83
2022-08-03T03:34:08.335Z,17.81
2022-08-03T03:37:10.276Z,17.79
2022-08-03T03:40:12.450Z,17.79
2022-08-03T03:43:14.187Z,17.79
2022-08-03T03:46:16.203Z,17.81
2022-08-03T03:49:17.938Z,17.82
2022-08-03T03:52:19.771Z,17.80
2022-08-03T03:55:21.590Z,17.81
2022-08-03T03:58:23.328Z,17.81
2022-08-03T04:01:26.760Z,17.83
2022-08-03T04:04:47.096Z,17.85
2022-08-03T04:08:17.696Z,17.85
2022-08-03T04:11:31.802Z,17.91
2022-08-03T04:14:35.987Z,17.89
2022-08-03T04:17:38.939Z,17.90
2022-08-03T04:20:45.648Z,17.92
2022-08-03T04:23:53.171Z,17.93
2022-08-03T04:26:57.309Z,17.94
2022-08-03T04:30:02.552Z,17.99
2022-08-03T04:33:05.343Z,18.00
2022-08-03T04:36:09.758Z,18.04
2022-08-03T04:39:18.253Z,18.10
2022-08-03T04:42:22.563Z,18.12
2022-08-03T04:45:25.054Z,18.15
2022-08-03T04:48:27.729Z,18.19
2022-08-03T04:51:30.272Z,18.24
2022-08-03T04:54:39.765Z,18.26
2022-08-03T04:57:41.582Z,18.29
2022-08-03T05:00:43.366Z,18.35
2022-08-03T05:03:45.266Z,18.38
2022-08-03T05:06:48.112Z,18.39
2022-08-03T05:10:01.333Z,18.42
2022-08-03T05:13:05.137Z,18.46
2022-08-03T05:16:07.277Z,18.48
2022-08-03T05:19:09.071Z,18.54
2022-08-03T05:22:11.037Z,18.58
2022-08-03T05:25:17.084Z,18.62
2022-08-03T05:28:21.833Z,18.65
2022-08-03T05:31:23.720Z,18.69
2022-08-03T05:34:25.644Z,18.73
2022-08-03T05:37:27.435Z,18.79
2022-08-03T05:40:29.226Z,18.85
2022-08-03T05:43:32.088Z,18.92
2022-08-03T05:46:33.912Z,18.99
2022-08-03T05:49:35.905Z,19.06
2022-08-03T05:52:38.697Z,19.17
2022-08-03T05:55:40.742Z,19.27
2022-08-03T05:58:44.459Z,19.36
2022-08-03T06:01:46.846Z,19.46
2022-08-03T06:04:48.607Z,19.55
2022-08-03T06:07:51.330Z,19.66
2022-08-03T06:10:53.166Z,19.75
2022-08-03T06:13:55.212Z,19.83
2022-08-03T06:16:56.951Z,19.93
2022-08-03T06:19:58.729Z,20.05
2022-08-03T06:23:01.135Z,20.18
2022-08-03T06:26:03.417Z,20.32
2022-08-03T06:29:05.318Z,20.47
2022-08-03T06:32:10.570Z,20.72
2022-08-03T06:35:12.343Z,20.94
2022-08-03T06:38:14.228Z,21.12
2022-08-03T06:41:16.033Z,21.30
2022-08-03T06:44:18.014Z,21.47
2022-08-03T06:47:19.880Z,21.64
2022-08-03T06:50:26.005Z,21.77
2022-08-03T06:53:28.078Z,21.93
2022-08-03T06:56:29.988Z,22.04
2022-08-03T07:00:10.363Z,22.14
2022-08-03T07:02:58.120Z,22.23
2022-08-03T07:06:03.492Z,22.31
2022-08-03T07:09:05.281Z,22.42
2022-08-03T07:12:07.539Z,22.58
2022-08-03T07:15:20.167Z,22.70
2022-08-03T07:18:31.750Z,22.82
2022-08-03T07:21:33.658Z,22.94
2022-08-03T07:24:35.521Z,23.03
2022-08-03T07:27:38.331Z,23.17
2022-08-03T07:30:40.224Z,23.24
2022-08-03T07:33:42.226Z,23.41
2022-08-03T07:36:44.129Z,23.52
2022-08-03T07:39:45.906Z,23.59
2022-08-03T07:42:47.945Z,23.73
2022-08-03T07:45:55.099Z,23.90
2022-08-03T07:48:57.124Z,24.12
2022-08-03T07:52:17.802Z,24.22
2022-08-03T07:55:21.930Z,24.28
2022-08-03T07:58:24.587Z,24.29
2022-08-03T08:01:26.601Z,24.26
2022-08-03T08:04:28.405Z,24.29
2022-08-03T08:07:30.381Z,24.35
2022-08-03T08:10:33.217Z,24.40
2022-08-03T08:13:35.340Z,24.51
2022-08-03T08:16:37.240Z,24.49
2022-08-03T08:19:41.497Z,24.54
2022-08-03T08:22:53.096Z,24.64
2022-08-03T08:25:54.946Z,24.79
2022-08-03T08:28:56.892Z,24.92
2022-08-03T08:31:58.477Z,24.95
2022-08-03T08:35:00.414Z,24.97
2022-08-03T08:38:05.576Z,25.17
2022-08-03T08:41:08.800Z,25.33
2022-08-03T08:44:10.738Z,25.35
2022-08-03T08:47:13.290Z,25.29
2022-08-03T08:50:27.192Z,25.33
2022-08-03T08:53:30.315Z,25.36
2022-08-03T08:56:33.903Z,25.70
2022-08-03T08:59:48.534Z,26.03
2022-08-03T09:02:51.567Z,26.00
2022-08-03T09:05:56.062Z,25.94
2022-08-03T09:08:58.314Z,26.06
2022-08-03T09:12:20.020Z,26.16
2022-08-03T09:15:34.240Z,26.20
2022-08-03T09:18:36.300Z,26.23
2022-08-03T09:21:38.233Z,26.29
2022-08-03T09:25:23.229Z,26.33
2022-08-03T09:29:01.557Z,26.61
2022-08-03T09:32:06.578Z,26.96
2022-08-03T09:35:09.473Z,27.19
2022-08-03T09:38:14.344Z,27.20
2022-08-03T09:41:22.064Z,27.18
2022-08-03T09:44:36.053Z,27.30
2022-08-03T09:47:45.160Z,27.32
2022-08-03T09:50:58.495Z,27.48
2022-08-03T09:54:29.420Z,27.61
2022-08-03T09:57:31.172Z,27.82
2022-08-03T10:00:32.932Z,27.82
2022-08-03T10:03:36.323Z,27.65
2022-08-03T10:07:13.246Z,27.70
2022-08-03T10:10:30.318Z,27.95
2022-08-03T10:13:34.252Z,28.11
2022-08-03T10:16:40.477Z,28.06
2022-08-03T10:19:42.282Z,28.01
2022-08-03T10:22:44.080Z,28.08
2022-08-03T10:25:59.243Z,28.08
2022-08-03T10:29:03.857Z,28.03
2022-08-03T10:32:14.620Z,28.31
2022-08-03T10:35:21.404Z,28.55
2022-08-03T10:38:36.057Z,28.61
2022-08-03T10:41:42.676Z,28.74
2022-08-03T10:44:44.736Z,28.67
2022-08-03T10:47:51.890Z,28.63
2022-08-03T10:50:54.152Z,28.88
2022-08-03T10:53:56.001Z,29.05
2022-08-03T10:57:18.545Z,29.11
2022-08-03T11:00:24.798Z,28.99
2022-08-03T11:03:26.585Z,29.22
2022-08-03T11:06:28.501Z,29.34
2022-08-03T11:09:48.566Z,29.69
2022-08-03T11:12:50.825Z,29.68
2022-08-03T11:16:01.621Z,29.60
2022-08-03T11:19:07.292Z,29.79
2022-08-03T11:22:09.897Z,29.94
2022-08-03T11:25:53.561Z,29.82
2022-08-03T11:28:39.811Z,29.81
2022-08-03T11:31:50.708Z,29.84
2022-08-03T11:35:09.965Z,29.90
2022-08-03T11:38:12.624Z,29.80
2022-08-03T11:41:33.741Z,29.73
2022-08-03T11:44:47.443Z,29.75
2022-08-03T11:47:53.945Z,30.01
2022-08-03T11:50:57.383Z,30.24
2022-08-03T11:54:01.765Z,30.13
2022-08-03T11:57:03.930Z,30.28
2022-08-03T12:00:26.013Z,30.29
2022-08-03T12:03:33.160Z,30.38
2022-08-03T12:06:54.937Z,30.73
2022-08-03T12:10:06.499Z,30.96
2022-08-03T12:14:45.803Z,31.03
2022-08-03T12:16:33.408Z,31.38
2022-08-03T12:19:47.608Z,31.51
2022-08-03T12:22:49.684Z,31.84
2022-08-03T12:25:51.569Z,32.16
2022-08-03T12:28:53.498Z,32.46
2022-08-03T12:31:56.310Z,32.80
2022-08-03T12:35:04.389Z,32.68
2022-08-03T12:38:07.473Z,32.60
2022-08-03T12:41:17.029Z,32.65
2022-08-03T12:44:19.274Z,32.46
2022-08-03T12:47:21.338Z,32.36
2022-08-03T12:50:31.590Z,32.65
2022-08-03T12:53:33.787Z,32.93
2022-08-03T12:56:35.846Z,33.17
2022-08-03T12:59:52.784Z,33.21
2022-08-03T13:06:29.849Z,33.22
2022-08-03T13:09:44.446Z,33.41
2022-08-03T13:12:50.065Z,33.41
2022-08-03T13:15:52.345Z,33.41
2022-08-03T13:18:54.503Z,33.43
2022-08-03T13:22:03.746Z,33.38
2022-08-03T13:25:06.884Z,33.46
2022-08-03T13:28:13.785Z,33.56
2022-08-03T13:31:16.224Z,33.77
2022-08-03T13:34:23.028Z,33.96
2022-08-03T13:37:26.726Z,34.02
2022-08-03T13:40:33.468Z,34.12
2022-08-03T13:43:40.210Z,34.12
2022-08-03T13:46:42.212Z,34.12
2022-08-03T13:50:00.515Z,34.16
2022-08-03T13:53:04.649Z,34.44
2022-08-03T13:56:07.622Z,34.55
2022-08-03T13:59:11.232Z,34.45
2022-08-03T14:02:13.163Z,34.38
2022-08-03T14:05:15.048Z,34.37
2022-08-03T14:08:17.047Z,34.41
2022-08-03T14:11:19.062Z,34.64
2022-08-03T14:14:20.916Z,34.86
2022-08-03T14:17:23.956Z,35.13
2022-08-03T14:20:37.959Z,35.25
2022-08-03T14:23:49.789Z,35.11
2022-08-03T14:26:51.545Z,35.26
2022-08-03T14:29:53.470Z,35.13
2022-08-03T14:32:57.965Z,34.94
2022-08-03T14:36:02.656Z,34.56
2022-08-03T14:39:05.799Z,34.00
2022-08-03T14:42:07.941Z,33.79
2022-08-03T14:45:20.000Z,34.33
2022-08-03T14:50:12.573Z,34.98
2022-08-03T14:51:51.514Z,35.27
2022-08-03T14:54:55.785Z,35.15
2022-08-03T14:57:57.689Z,34.98
2022-08-03T15:00:59.632Z,34.74
2022-08-03T15:04:01.432Z,34.82
2022-08-03T15:07:03.447Z,35.09
2022-08-03T15:10:05.541Z,35.08
2022-08-03T15:13:07.398Z,35.33
2022-08-03T15:16:09.936Z,35.77
2022-08-03T15:20:00.774Z,36.16
2022-08-03T15:22:35.224Z,36.40
2022-08-03T15:26:29.355Z,36.70
2022-08-03T15:28:59.784Z,37.11
2022-08-03T15:32:04.000Z,37.27
2022-08-03T15:35:08.975Z,37.26
2022-08-03T15:38:10.868Z,37.03
2022-08-03T15:41:15.874Z,37.10
2022-08-03T15:44:21.319Z,36.94
2022-08-03T15:47:23.173Z,36.96
2022-08-03T15:50:24.968Z,36.92
2022-08-03T15:53:26.882Z,37.29
2022-08-03T15:56:28.612Z,37.31
2022-08-03T15:59:30.541Z,37.68
2022-08-03T16:02:32.994Z,37.66
2022-08-03T16:05:35.123Z,37.15
2022-08-03T16:08:36.761Z,36.54
2022-08-03T16:11:38.637Z,36.07
2022-08-03T16:14:51.500Z,35.52
2022-08-03T16:17:54.799Z,35.17
2022-08-03T16:20:57.698Z,34.92
2022-08-03T16:24:00.535Z,34.73
2022-08-03T16:27:03.894Z,34.88
2022-08-03T16:30:08.829Z,35.38
2022-08-03T16:33:16.832Z,35.41
2022-08-03T16:36:19.567Z,35.16
2022-08-03T16:39:21.415Z,35.51
2022-08-03T16:42:23.047Z,35.52
2022-08-03T16:45:25.132Z,35.87
2022-08-03T16:48:27.257Z,36.49
2022-08-03T16:51:40.379Z,36.58
2022-08-03T16:54:52.739Z,36.96
2022-08-03T16:57:58.911Z,37.70
2022-08-03T17:01:10.923Z,37.39
2022-08-03T17:04:23.819Z,37.13
2022-08-03T17:07:25.862Z,36.37
2022-08-03T17:10:32.622Z,36.47
2022-08-03T17:13:39.707Z,37.26
2022-08-03T17:16:52.734Z,38.15
2022-08-03T17:19:57.755Z,38.58
2022-08-03T17:23:41.069Z,38.78
2022-08-03T17:26:46.442Z,38.61
2022-08-03T17:29:59.596Z,38.84
2022-08-03T17:33:01.437Z,38.84
2022-08-03T17:36:04.013Z,38.87
2022-08-03T17:39:07.584Z,38.74
2022-08-03T17:42:29.109Z,38.82
2022-08-03T17:48:57.329Z,37.08
2022-08-03T17:52:06.586Z,36.40
2022-08-03T17:55:56.226Z,36.18
2022-08-03T17:59:08.564Z,35.96
2022-08-03T18:02:51.515Z,35.54
2022-08-03T18:06:11.943Z,34.84
2022-08-03T18:10:03.731Z,34.01
2022-08-03T18:12:51.609Z,33.27
2022-08-03T18:16:01.330Z,32.73
2022-08-03T18:19:09.705Z,32.33
2022-08-03T18:22:16.535Z,31.96
2022-08-03T18:25:45.579Z,31.66
2022-08-03T18:28:43.987Z,31.31
2022-08-03T18:32:02.760Z,31.00
2022-08-03T18:35:07.972Z,30.70
2022-08-03T18:38:18.849Z,30.42
2022-08-03T18:41:33.292Z,30.17
2022-08-03T18:44:46.622Z,29.98
2022-08-03T18:48:05.051Z,29.85
2022-08-03T18:51:24.180Z,29.79
2022-08-03T18:55:02.791Z,29.64
2022-08-03T18:58:15.944Z,29.44
2022-08-03T19:01:57.805Z,29.22
2022-08-03T19:04:48.554Z,28.93
2022-08-03T19:08:04.700Z,28.72
2022-08-03T19:11:12.295Z,28.54
2022-08-03T19:14:20.794Z,28.38
2022-08-03T19:17:36.026Z,28.17
2022-08-03T19:20:41.518Z,27.95
2022-08-03T19:23:49.103Z,27.75
2022-08-03T19:26:52.143Z,27.53
2022-08-03T19:29:58.358Z,27.36
2022-08-03T19:33:09.990Z,27.26
2022-08-03T19:36:13.893Z,27.17
2022-08-03T19:39:17.537Z,27.07
2022-08-03T19:42:29.865Z,26.95
2022-08-03T19:45:52.659Z,26.80
2022-08-03T19:49:10.724Z,26.63
2022-08-03T19:52:24.162Z,26.48
2022-08-03T19:55:28.843Z,26.34
2022-08-03T19:58:38.032Z,26.21
2022-08-03T20:01:50.358Z,26.08
2022-08-03T20:04:57.615Z,25.94
2022-08-03T20:08:07.139Z,25.84
2022-08-03T20:11:12.140Z,25.71
2022-08-03T20:17:56.087Z,25.49
2022-08-03T20:21:05.385Z,25.38
2022-08-03T20:24:23.717Z,25.26
2022-08-03T20:27:30.191Z,25.17
2022-08-03T20:30:32.575Z,25.05
2022-08-03T20:33:48.467Z,24.92
2022-08-03T20:36:51.645Z,24.82
2022-08-03T20:39:54.559Z,24.72
2022-08-03T20:42:56.545Z,24.62
2022-08-03T20:46:32.006Z,24.56
2022-08-03T20:49:23.113Z,24.50
2022-08-03T20:52:28.246Z,24.46
2022-08-03T20:55:47.676Z,24.48
2022-08-03T20:58:59.949Z,24.46
2022-08-03T21:02:13.346Z,24.37
2022-08-03T21:05:47.649Z,24.31
2022-08-03T21:09:00.209Z,24.26
2022-08-03T21:12:10.192Z,24.21
2022-08-03T21:13:03.679Z,25.62
2022-08-03T21:13:04.018Z,38.24
2022-08-03T21:16:03.239Z,24.15
2022-08-03T21:18:50.361Z,24.05
2022-08-03T21:21:55.341Z,24.00
2022-08-03T21:24:59.523Z,23.94
2022-08-03T21:28:02.094Z,23.88
2022-08-03T21:31:04.627Z,23.79
2022-08-03T21:34:09.488Z,23.69
2022-08-03T21:37:15.814Z,23.61
2022-08-03T21:40:17.727Z,23.56
2022-08-03T21:43:20.158Z,23.50
2022-08-03T21:46:22.976Z,23.41
2022-08-03T21:50:04.560Z,23.35
2022-08-03T21:52:51.901Z,23.29
2022-08-03T21:56:16.389Z,23.23
2022-08-03T21:59:20.095Z,23.17
2022-08-03T22:02:26.882Z,23.13
2022-08-03T22:05:43.978Z,23.08
2022-08-03T22:08:47.684Z,23.03
2022-08-03T22:11:54.529Z,22.96
2022-08-03T22:15:02.245Z,22.92
2022-08-03T22:18:04.929Z,22.86
2022-08-03T22:21:09.004Z,22.81
2022-08-03T22:24:11.670Z,22.76
2022-08-03T22:27:33.159Z,22.74
2022-08-03T22:30:36.016Z,22.69
2022-08-03T22:33:42.497Z,22.63
2022-08-03T22:36:44.877Z,22.58
2022-08-03T22:39:47.271Z,22.56
2022-08-03T22:42:52.639Z,22.56
2022-08-03T22:46:09.426Z,22.58
2022-08-03T22:49:15.191Z,22.54
2022-08-03T22:52:17.672Z,22.54
2022-08-03T22:55:24.755Z,22.53
2022-08-03T22:58:26.732Z,22.52
2022-08-03T23:01:28.995Z,22.49
2022-08-03T23:04:35.183Z,22.46
2022-08-03T23:07:39.512Z,22.44
2022-08-03T23:10:46.951Z,22.39
2022-08-03T23:13:54.154Z,22.36
2022-08-03T23:16:59.910Z,22.33
2022-08-03T23:20:08.093Z,22.29
2022-08-03T23:23:13.431Z,22.25
2022-08-03T23:26:17.040Z,22.24
2022-08-03T23:29:20.480Z,22.21
2022-08-03T23:32:25.831Z,22.18
2022-08-03T23:36:27.739Z,22.12
2022-08-03T23:39:09.143Z,22.09
2022-08-03T23:42:15.088Z,22.05
2022-08-03T23:45:20.636Z,21.99
2022-08-03T23:48:22.584Z,21.94
2022-08-03T23:52:06.410Z,21.89
2022-08-03T23:55:30.220Z,21.85
2022-08-03T23:58:39.695Z,21.76
